createdAt,value
2018-06-07T00:02:19.944Z,66.90
2018-06-07T00:04:48.520Z,65.80
2018-06-07T00:07:17.104Z,67.20
2018-06-07T00:09:45.678Z,65.60
2018-06-07T00:12:14.315Z,67.50
2018-06-07T00:14:42.952Z,67.70
2018-06-07T00:17:11.549Z,67.50
2018-06-07T00:19:40.115Z,67.90
2018-06-07T00:22:08.699Z,66.90
2018-06-07T00:24:37.274Z,66.00
2018-06-07T00:27:05.881Z,66.60
2018-06-07T00:29:34.448Z,67.20
2018-06-07T00:32:03.086Z,68.00
2018-06-07T00:36:59.857Z,69.40
2018-06-07T00:39:28.450Z,69.30
2018-06-07T00:41:57.024Z,68.80
2018-06-07T00:44:25.613Z,70.60
2018-06-07T00:46:54.204Z,71.30
2018-06-07T00:49:22.784Z,70.40
2018-06-07T00:51:51.396Z,69.70
2018-06-07T00:54:19.966Z,70.10
2018-06-07T00:56:59.652Z,70.70
2018-06-07T01:01:56.566Z,70.30
2018-06-07T01:04:25.151Z,71.90
2018-06-07T01:06:53.731Z,71.30
2018-06-07T01:09:22.320Z,72.30
2018-06-07T01:11:50.916Z,71.70
2018-06-07T01:14:19.524Z,73.20
2018-06-07T01:19:16.456Z,71.80
2018-06-07T01:21:45.073Z,70.50
2018-06-07T01:24:14.312Z,71.00
2018-06-07T01:26:42.911Z,69.50
2018-06-07T01:29:27.192Z,70.50
2018-06-07T01:34:10.394Z,70.20
2018-06-07T01:36:39.287Z,71.50
2018-06-07T01:39:11.185Z,71.50
2018-06-07T01:41:39.757Z,73.30
2018-06-07T01:44:08.333Z,72.90
2018-06-07T01:46:36.988Z,74.90
2018-06-07T01:49:05.604Z,75.10
2018-06-07T01:51:34.254Z,74.50
2018-06-07T01:54:02.824Z,74.60
2018-06-07T01:56:31.392Z,73.40
2018-06-07T01:58:59.975Z,74.60
2018-06-07T02:01:28.583Z,76.00
2018-06-07T02:03:57.187Z,76.40
2018-06-07T02:06:25.773Z,75.50
2018-06-07T02:08:54.336Z,76.90
2018-06-07T02:11:22.939Z,75.20
2018-06-07T02:16:19.871Z,75.60
2018-06-07T02:18:48.436Z,76.90
2018-06-07T02:21:17.027Z,76.90
2018-06-07T02:23:45.863Z,76.60
2018-06-07T02:26:15.544Z,76.70
2018-06-07T02:28:44.904Z,77.70
2018-06-07T02:31:13.516Z,76.90
2018-06-07T02:33:42.696Z,78.20
2018-06-07T02:36:11.280Z,77.40
2018-06-07T02:38:39.864Z,77.10
2018-06-07T02:41:08.464Z,78.20
2018-06-07T02:43:37.061Z,79.00
2018-06-07T02:48:34.164Z,79.30
2018-06-07T02:51:02.932Z,79.80
2018-06-07T02:53:31.502Z,80.80
2018-06-07T02:58:28.320Z,75.80
2018-06-07T03:00:56.903Z,79.20
2018-06-07T03:03:25.467Z,80.70
2018-06-07T03:05:54.040Z,81.10
2018-06-07T03:08:22.687Z,81.90
2018-06-07T03:13:19.507Z,85.20
2018-06-07T03:18:16.304Z,86.80
2018-06-07T03:20:44.900Z,88.70
2018-06-07T03:23:13.476Z,85.30
2018-06-07T03:25:42.075Z,86.80
2018-06-07T03:28:10.648Z,87.00
2018-06-07T03:30:39.240Z,89.10
2018-06-07T03:33:07.820Z,88.40
2018-06-07T03:35:36.409Z,89.20
2018-06-07T03:38:05.002Z,90.00
2018-06-07T03:40:33.568Z,90.20
2018-06-07T03:43:02.152Z,90.50
2018-06-07T03:45:30.721Z,90.60
2018-06-07T03:47:59.583Z,90.60
2018-06-07T03:50:28.611Z,90.30
2018-06-07T03:52:57.196Z,90.90
2018-06-07T03:55:25.778Z,90.80
2018-06-07T03:57:54.356Z,90.60
2018-06-07T04:00:22.916Z,90.80
2018-06-07T04:02:51.483Z,90.40
2018-06-07T04:05:20.050Z,90.20
2018-06-07T04:07:48.951Z,90.10
2018-06-07T04:12:45.885Z,90.20
2018-06-07T04:15:14.486Z,90.50
2018-06-07T04:17:43.060Z,90.50
2018-06-07T04:20:11.980Z,90.10
2018-06-07T04:22:40.550Z,89.80
2018-06-07T04:25:09.124Z,89.50
2018-06-07T04:30:05.919Z,89.20
2018-06-07T04:32:34.540Z,87.90
2018-06-07T04:35:03.118Z,86.60
2018-06-07T04:37:31.685Z,87.10
2018-06-07T04:40:00.245Z,86.50
2018-06-07T04:42:28.805Z,86.30
2018-06-07T04:44:57.412Z,85.40
2018-06-07T04:47:26.018Z,84.30
2018-06-07T04:49:54.587Z,85.60
2018-06-07T04:52:23.157Z,83.50
2018-06-07T04:54:51.842Z,83.50
2018-06-07T04:57:20.455Z,83.40
2018-06-07T04:59:49.028Z,83.10
2018-06-07T05:02:17.624Z,82.40
2018-06-07T05:04:46.520Z,82.00
2018-06-07T05:07:15.148Z,81.70
2018-06-07T05:09:43.738Z,81.80
2018-06-07T05:12:12.308Z,81.30
2018-06-07T05:14:40.870Z,82.10
2018-06-07T05:17:09.461Z,79.00
2018-06-07T05:19:38.036Z,78.30
2018-06-07T05:22:06.648Z,78.40
2018-06-07T05:24:35.220Z,77.50
2018-06-07T05:27:03.795Z,77.30
2018-06-07T05:29:32.359Z,76.80
2018-06-07T05:32:00.980Z,76.20
2018-06-07T05:34:30.099Z,74.30
2018-06-07T05:36:58.740Z,73.10
2018-06-07T05:39:27.307Z,74.90
2018-06-07T05:41:55.881Z,74.20
2018-06-07T05:44:24.506Z,74.30
2018-06-07T05:46:53.140Z,72.00
2018-06-07T05:49:21.671Z,71.90
2018-06-07T05:51:50.252Z,71.20
2018-06-07T05:54:18.894Z,70.80
2018-06-07T05:56:47.510Z,70.50
2018-06-07T05:59:16.107Z,69.20
2018-06-07T06:01:44.683Z,70.20
2018-06-07T06:04:13.268Z,70.00
2018-06-07T06:06:42.428Z,69.90
2018-06-07T06:09:11.367Z,68.40
2018-06-07T06:11:39.965Z,65.90
2018-06-07T06:14:08.580Z,66.40
2018-06-07T06:16:37.168Z,65.80
2018-06-07T06:19:05.976Z,66.30
2018-06-07T06:21:34.548Z,66.70
2018-06-07T06:24:03.173Z,65.40
2018-06-07T06:26:31.740Z,64.80
2018-06-07T06:29:00.612Z,64.20
2018-06-07T06:31:29.193Z,64.40
2018-06-07T06:33:57.764Z,65.60
2018-06-07T06:36:26.376Z,65.40
2018-06-07T06:38:54.973Z,66.40
2018-06-07T06:41:24.264Z,64.80
2018-06-07T06:43:52.856Z,66.70
2018-06-07T06:46:21.432Z,65.40
2018-06-07T06:48:50.004Z,66.00
2018-06-07T06:51:18.603Z,65.80
2018-06-07T06:53:47.443Z,66.80
2018-06-07T06:56:16.679Z,66.50
2018-06-07T06:58:45.263Z,66.50
2018-06-07T07:01:14.694Z,66.50
2018-06-07T07:03:43.861Z,66.80
2018-06-07T07:06:12.483Z,65.10
2018-06-07T07:08:41.088Z,65.70
2018-06-07T07:11:09.677Z,65.90
2018-06-07T07:13:38.467Z,64.30
2018-06-07T07:16:07.048Z,66.60
2018-06-07T07:18:35.629Z,60.50
2018-06-07T07:21:04.247Z,60.50
2018-06-07T07:23:32.812Z,61.00
2018-06-07T07:26:01.399Z,59.90
2018-06-07T07:28:29.975Z,59.80
2018-06-07T07:30:58.547Z,60.00
2018-06-07T07:33:27.123Z,58.90
2018-06-07T07:35:55.707Z,58.90
2018-06-07T07:38:24.284Z,57.80
2018-06-07T07:40:52.857Z,57.70
2018-06-07T07:43:21.444Z,59.40
2018-06-07T07:45:50.050Z,59.60
2018-06-07T07:48:18.632Z,58.50
2018-06-07T07:50:47.216Z,57.80
2018-06-07T07:53:15.788Z,57.50
2018-06-07T07:55:44.356Z,56.80
2018-06-07T07:58:12.952Z,55.90
2018-06-07T08:00:41.829Z,56.20
2018-06-07T08:03:10.484Z,54.20
2018-06-07T08:05:39.119Z,53.60
2018-06-07T08:08:07.666Z,54.70
2018-06-07T08:10:36.252Z,55.20
2018-06-07T08:13:04.840Z,56.00
2018-06-07T08:15:33.434Z,56.60
2018-06-07T08:18:02.011Z,55.40
2018-06-07T08:20:30.597Z,55.50
2018-06-07T08:22:59.216Z,55.60
2018-06-07T08:25:27.791Z,55.60
2018-06-07T08:27:56.376Z,55.20
2018-06-07T08:30:24.953Z,55.80
2018-06-07T08:35:21.753Z,58.10
2018-06-07T08:37:50.317Z,58.10
2018-06-07T08:40:18.947Z,58.50
2018-06-07T08:42:47.516Z,58.10
2018-06-07T08:45:16.097Z,58.60
2018-06-07T08:47:44.724Z,58.50
2018-06-07T08:50:13.287Z,58.30
2018-06-07T08:52:41.856Z,59.20
2018-06-07T08:55:11.037Z,59.10
2018-06-07T08:57:39.604Z,59.10
2018-06-07T09:00:08.254Z,59.70
2018-06-07T09:02:36.796Z,59.30
2018-06-07T09:05:05.356Z,59.60
2018-06-07T09:07:33.924Z,59.30
2018-06-07T09:10:02.710Z,56.60
2018-06-07T09:12:31.312Z,58.40
2018-06-07T09:14:59.893Z,58.30
2018-06-07T09:17:28.465Z,58.80
2018-06-07T09:19:57.027Z,58.20
2018-06-07T09:24:53.853Z,56.20
2018-06-07T09:27:22.477Z,54.80
2018-06-07T09:29:51.053Z,54.40
2018-06-07T09:32:19.620Z,52.50
2018-06-07T09:34:48.191Z,54.10
2018-06-07T09:37:17.720Z,51.90
2018-06-07T09:39:46.300Z,51.60
2018-06-07T09:42:14.884Z,54.50
2018-06-07T09:44:43.460Z,54.60
2018-06-07T09:47:12.048Z,51.20
2018-06-07T09:49:40.664Z,52.10
2018-06-07T09:52:09.212Z,52.80
2018-06-07T09:54:37.806Z,54.90
2018-06-07T09:57:06.383Z,53.80
2018-06-07T09:59:34.952Z,52.80
2018-06-07T10:02:03.563Z,51.00
2018-06-07T10:04:32.123Z,51.50
2018-06-07T10:07:00.695Z,51.90
2018-06-07T10:09:29.300Z,51.10
2018-06-07T10:11:58.457Z,50.10
2018-06-07T10:14:27.841Z,50.00
2018-06-07T10:16:56.422Z,52.00
2018-06-07T10:19:25.012Z,50.40
2018-06-07T10:21:53.600Z,49.40
2018-06-07T10:24:22.164Z,51.30
2018-06-07T10:26:50.764Z,50.30
2018-06-07T10:29:19.371Z,48.70
2018-06-07T10:31:47.931Z,49.20
2018-06-07T10:34:16.495Z,49.10
2018-06-07T10:36:45.084Z,49.10
2018-06-07T10:39:13.680Z,47.80
2018-06-07T10:44:10.589Z,47.50
2018-06-07T10:46:39.544Z,47.90
2018-06-07T10:49:08.107Z,47.70
2018-06-07T10:51:36.732Z,47.70
2018-06-07T10:54:05.323Z,47.80
2018-06-07T10:56:33.903Z,47.20
2018-06-07T10:59:02.482Z,47.40
2018-06-07T11:01:31.068Z,47.10
2018-06-07T11:03:59.668Z,46.80
2018-06-07T11:06:28.232Z,46.10
2018-06-07T11:08:56.891Z,46.60
2018-06-07T11:11:25.463Z,46.60
2018-06-07T11:13:54.044Z,45.90
2018-06-07T11:18:50.876Z,46.60
2018-06-07T11:21:19.460Z,44.80
2018-06-07T11:23:48.012Z,45.90
2018-06-07T11:26:16.692Z,46.80
2018-06-07T11:28:45.328Z,47.80
2018-06-07T11:31:13.891Z,47.80
2018-06-07T11:33:42.492Z,46.50
2018-06-07T11:36:11.072Z,46.60
2018-06-07T11:38:39.640Z,47.40
2018-06-07T11:41:08.255Z,47.30
2018-06-07T11:43:36.823Z,46.70
2018-06-07T11:46:05.753Z,47.30
2018-06-07T11:48:34.312Z,47.80
2018-06-07T11:51:02.887Z,47.90
2018-06-07T11:53:31.476Z,47.60
2018-06-07T11:56:00.272Z,48.20
2018-06-07T11:58:28.851Z,48.40
2018-06-07T12:03:26.407Z,46.60
2018-06-07T12:05:55.004Z,47.60
2018-06-07T12:08:23.578Z,47.80
2018-06-07T12:10:52.753Z,46.00
2018-06-07T12:13:21.390Z,46.00
2018-06-07T12:15:50.139Z,45.30
2018-06-07T12:18:18.731Z,44.90
2018-06-07T12:20:47.295Z,45.10
2018-06-07T12:23:15.908Z,44.50
2018-06-07T12:25:44.491Z,45.90
2018-06-07T12:28:13.056Z,45.00
2018-06-07T12:30:41.656Z,47.10
2018-06-07T12:33:10.232Z,45.80
2018-06-07T12:35:38.810Z,46.00
2018-06-07T12:38:07.376Z,45.20
2018-06-07T12:40:36.000Z,45.20
2018-06-07T12:43:04.592Z,45.10
2018-06-07T12:45:33.196Z,45.30
2018-06-07T12:48:01.773Z,43.80
2018-06-07T12:50:30.353Z,43.30
2018-06-07T12:52:58.979Z,43.50
2018-06-07T12:55:27.555Z,44.30
2018-06-07T12:57:56.141Z,45.00
2018-06-07T13:00:24.715Z,42.10
2018-06-07T13:02:53.293Z,43.40
2018-06-07T13:05:21.892Z,42.50
2018-06-07T13:07:50.488Z,42.70
2018-06-07T13:10:19.099Z,43.80
2018-06-07T13:12:47.716Z,43.00
2018-06-07T13:15:16.720Z,41.70
2018-06-07T13:17:45.331Z,42.50
2018-06-07T13:20:13.918Z,41.50
2018-06-07T13:22:42.531Z,40.10
2018-06-07T13:25:11.689Z,40.40
2018-06-07T13:27:40.266Z,41.40
2018-06-07T13:30:08.867Z,41.90
2018-06-07T13:32:37.444Z,41.60
2018-06-07T13:35:06.110Z,41.80
2018-06-07T13:37:34.701Z,41.50
2018-06-07T13:40:03.596Z,41.80
2018-06-07T13:42:32.199Z,41.70
2018-06-07T13:45:00.833Z,42.30
2018-06-07T13:47:29.412Z,43.50
2018-06-07T13:49:58.119Z,43.60
2018-06-07T13:52:26.700Z,43.00
2018-06-07T13:54:55.302Z,44.20
2018-06-07T13:57:23.896Z,44.90
2018-06-07T13:59:52.476Z,45.40
2018-06-07T14:02:21.055Z,44.50
2018-06-07T14:04:49.651Z,45.10
2018-06-07T14:07:18.260Z,44.00
2018-06-07T14:09:47.019Z,43.60
2018-06-07T14:12:15.620Z,43.30
2018-06-07T14:17:12.400Z,43.50
2018-06-07T14:19:41.253Z,43.10
2018-06-07T14:22:09.864Z,42.40
2018-06-07T14:24:38.507Z,42.60
2018-06-07T14:27:07.087Z,43.30
2018-06-07T14:29:35.685Z,43.30
2018-06-07T14:32:04.298Z,43.90
2018-06-07T14:34:32.900Z,43.20
2018-06-07T14:37:01.488Z,42.60
2018-06-07T14:39:30.380Z,42.70
2018-06-07T14:41:58.948Z,42.80
2018-06-07T14:44:27.540Z,43.20
2018-06-07T14:46:56.122Z,43.40
2018-06-07T14:49:25.912Z,44.10
2018-06-07T14:51:54.484Z,44.10
2018-06-07T14:54:23.052Z,44.50
2018-06-07T14:56:51.646Z,44.30
2018-06-07T14:59:20.255Z,44.60
2018-06-07T15:01:48.867Z,44.40
2018-06-07T15:04:17.455Z,45.30
2018-06-07T15:06:46.040Z,45.70
2018-06-07T15:09:14.665Z,46.00
2018-06-07T15:11:43.289Z,46.50
2018-06-07T15:14:12.032Z,45.90
2018-06-07T15:16:40.631Z,45.70
2018-06-07T15:19:09.212Z,46.00
2018-06-07T15:21:37.821Z,47.30
2018-06-07T15:24:06.564Z,46.90
2018-06-07T15:26:35.175Z,47.00
2018-06-07T15:29:03.768Z,46.90
2018-06-07T15:31:33.017Z,46.20
2018-06-07T15:34:01.672Z,46.60
2018-06-07T15:36:30.319Z,46.70
2018-06-07T15:38:58.900Z,46.90
2018-06-07T15:41:27.521Z,47.50
2018-06-07T15:43:56.716Z,47.50
2018-06-07T15:46:25.335Z,47.70
2018-06-07T15:48:53.930Z,47.80
2018-06-07T15:51:22.648Z,48.00
2018-06-07T15:53:51.260Z,47.60
2018-06-07T15:56:19.836Z,48.20
2018-06-07T15:58:48.452Z,48.30
2018-06-07T16:01:17.048Z,48.30
2018-06-07T16:03:45.644Z,49.20
2018-06-07T16:06:14.330Z,50.00
2018-06-07T16:08:42.941Z,50.30
2018-06-07T16:11:11.576Z,51.50
2018-06-07T16:13:40.170Z,51.90
2018-06-07T16:16:08.777Z,51.80
2018-06-07T16:18:37.449Z,52.40
2018-06-07T16:21:06.384Z,52.90
2018-06-07T16:26:03.531Z,52.50
2018-06-07T16:28:32.115Z,52.70
2018-06-07T16:31:00.732Z,52.20
2018-06-07T16:33:29.334Z,52.00
2018-06-07T16:35:57.958Z,52.50
2018-06-07T16:38:26.588Z,52.30
2018-06-07T16:40:55.185Z,52.60
2018-06-07T16:43:24.239Z,52.30
2018-06-07T16:45:52.896Z,52.50
2018-06-07T16:48:21.492Z,52.10
2018-06-07T16:53:18.343Z,52.60
2018-06-07T16:55:46.945Z,52.60
2018-06-07T17:00:43.888Z,52.30
2018-06-07T17:03:12.497Z,51.60
2018-06-07T17:05:41.072Z,51.90
2018-06-07T17:10:38.067Z,52.10
2018-06-07T17:13:06.666Z,51.80
2018-06-07T17:15:35.251Z,51.80
2018-06-07T17:18:03.887Z,51.50
2018-06-07T17:20:32.616Z,51.20
2018-06-07T17:23:01.265Z,51.60
2018-06-07T17:27:58.061Z,52.00
2018-06-07T17:30:26.630Z,51.90
2018-06-07T17:32:56.028Z,51.60
2018-06-07T17:35:24.644Z,51.10
2018-06-07T17:37:53.199Z,51.00
2018-06-07T17:40:21.771Z,50.60
2018-06-07T17:42:50.346Z,50.50
2018-06-07T17:45:19.135Z,50.10
2018-06-07T17:47:47.888Z,49.10
2018-06-07T17:50:16.545Z,48.20
2018-06-07T17:52:45.124Z,48.20
2018-06-07T17:55:13.876Z,46.60
2018-06-07T17:57:42.499Z,46.20
2018-06-07T18:00:11.179Z,46.50
2018-06-07T18:02:39.772Z,45.30
2018-06-07T18:05:08.367Z,45.70
2018-06-07T18:07:36.952Z,45.10
2018-06-07T18:12:33.861Z,45.80
2018-06-07T18:15:02.465Z,46.10
2018-06-07T18:17:31.086Z,46.30
2018-06-07T18:19:59.703Z,46.40
2018-06-07T18:22:28.304Z,46.90
2018-06-07T18:24:56.952Z,46.50
2018-06-07T18:27:26.249Z,46.60
2018-06-07T18:29:54.869Z,46.70
2018-06-07T18:32:23.451Z,47.00
2018-06-07T18:34:52.055Z,47.00
2018-06-07T18:37:20.647Z,47.60
2018-06-07T18:39:50.208Z,47.80
2018-06-07T18:42:18.788Z,47.50
2018-06-07T18:44:47.355Z,47.90
2018-06-07T18:47:16.232Z,48.10
2018-06-07T18:49:44.822Z,47.90
2018-06-07T18:52:13.407Z,48.40
2018-06-07T18:54:41.975Z,48.40
2018-06-07T18:57:10.616Z,48.00
2018-06-07T18:59:39.191Z,48.40
2018-06-07T19:02:07.855Z,48.10
2018-06-07T19:04:36.424Z,48.50
2018-06-07T19:07:05.050Z,48.80
2018-06-07T19:09:38.735Z,48.30
2018-06-07T19:12:07.320Z,49.00
2018-06-07T19:14:41.120Z,49.40
2018-06-07T19:17:09.687Z,49.30
2018-06-07T19:19:43.611Z,49.90
2018-06-07T19:22:12.368Z,49.20
2018-06-07T19:24:41.007Z,48.30
2018-06-07T19:27:14.772Z,48.30
2018-06-07T19:29:43.352Z,49.10
2018-06-07T19:32:17.207Z,49.50
2018-06-07T19:34:51.036Z,49.30
2018-06-07T19:37:19.660Z,49.40
2018-06-07T19:39:53.464Z,48.90
2018-06-07T19:42:22.080Z,49.10
2018-06-07T19:44:50.667Z,49.60
2018-06-07T19:47:19.241Z,50.40
2018-06-07T19:49:47.819Z,49.70
2018-06-07T19:52:16.538Z,50.20
2018-06-07T19:54:48.170Z,50.60
2018-06-07T19:57:16.892Z,50.60
2018-06-07T19:59:48.056Z,51.10
2018-06-07T20:02:17.821Z,51.00
2018-06-07T20:04:47.152Z,51.20
2018-06-07T20:07:17.208Z,51.40
2018-06-07T20:09:45.783Z,51.90
2018-06-07T20:12:14.366Z,52.10
2018-06-07T20:14:42.968Z,52.10
2018-06-07T20:17:11.584Z,52.50
2018-06-07T20:19:40.374Z,52.50
2018-06-07T20:22:09.059Z,53.20
2018-06-07T20:24:37.991Z,53.20
2018-06-07T20:27:06.625Z,53.30
2018-06-07T20:29:35.203Z,53.40
2018-06-07T20:32:03.825Z,53.20
2018-06-07T20:34:32.419Z,53.40
2018-06-07T20:37:13.183Z,53.70
2018-06-07T20:39:41.778Z,54.20
2018-06-07T20:42:10.360Z,54.60
2018-06-07T20:47:11.533Z,54.80
2018-06-07T20:49:41.144Z,55.40
2018-06-07T20:52:13.156Z,55.50
2018-06-07T20:54:41.734Z,55.90
2018-06-07T20:57:10.316Z,55.90
2018-06-07T20:59:38.928Z,56.00
2018-06-07T21:02:07.517Z,57.00
2018-06-07T21:04:41.300Z,56.50
2018-06-07T21:07:09.871Z,56.70
2018-06-07T21:09:38.464Z,56.60
2018-06-07T21:12:07.045Z,57.40
2018-06-07T21:14:35.655Z,57.50
2018-06-07T21:17:04.254Z,57.80
2018-06-07T21:19:33.403Z,57.90
2018-06-07T21:22:01.985Z,57.40
2018-06-07T21:24:30.619Z,58.40
2018-06-07T21:26:59.202Z,58.50
2018-06-07T21:29:27.799Z,58.90
2018-06-07T21:31:56.363Z,58.30
2018-06-07T21:34:25.164Z,58.70
2018-06-07T21:36:53.731Z,58.80
2018-06-07T21:39:22.327Z,58.40
2018-06-07T21:41:51.219Z,58.20
2018-06-07T21:44:19.830Z,58.80
2018-06-07T21:46:48.907Z,59.00
2018-06-07T21:49:17.487Z,58.90
2018-06-07T21:51:46.815Z,59.70
2018-06-07T21:54:15.412Z,60.10
2018-06-07T21:56:44.783Z,59.50
2018-06-07T21:59:13.373Z,59.60
2018-06-07T22:01:42.366Z,59.70
2018-06-07T22:04:10.968Z,60.20
2018-06-07T22:06:39.572Z,60.00
2018-06-07T22:09:09.015Z,61.10
2018-06-07T22:11:37.932Z,60.50
2018-06-07T22:14:07.264Z,60.80
2018-06-07T22:16:35.852Z,60.20
2018-06-07T22:19:05.212Z,60.70
2018-06-07T22:21:33.789Z,62.00
2018-06-07T22:24:02.377Z,61.80
2018-06-07T22:26:30.943Z,61.00
2018-06-07T22:28:59.523Z,61.70
2018-06-07T22:31:28.119Z,61.80
2018-06-07T22:33:56.696Z,61.60
2018-06-07T22:36:25.296Z,62.30
2018-06-07T22:41:22.226Z,61.50
2018-06-07T22:43:50.817Z,62.60
2018-06-07T22:48:47.627Z,62.50
2018-06-07T22:51:16.224Z,63.60
2018-06-07T22:53:44.789Z,64.40
2018-06-07T22:56:13.406Z,65.00
2018-06-07T22:58:41.989Z,64.60
2018-06-07T23:01:10.552Z,64.80
2018-06-07T23:03:39.144Z,64.90
2018-06-07T23:06:07.711Z,64.70
2018-06-07T23:08:36.304Z,64.90
2018-06-07T23:11:04.884Z,64.20
2018-06-07T23:13:33.461Z,63.70
2018-06-07T23:16:02.244Z,64.80
2018-06-07T23:18:31.152Z,65.10
2018-06-07T23:20:59.783Z,64.80
2018-06-07T23:25:56.734Z,64.80
2018-06-07T23:28:25.268Z,65.40
2018-06-07T23:30:53.840Z,65.70
2018-06-07T23:33:22.483Z,65.50
2018-06-07T23:35:51.076Z,65.90
2018-06-07T23:38:19.775Z,66.70
2018-06-07T23:40:48.348Z,66.60
2018-06-07T23:43:16.928Z,67.10
2018-06-07T23:45:45.524Z,67.10
2018-06-07T23:48:14.093Z,67.20
2018-06-07T23:50:42.659Z,66.80
2018-06-07T23:53:11.236Z,67.40
2018-06-07T23:55:39.805Z,67.10
2018-06-07T23:58:08.404Z,67.10
